sensor_id;sensor_type;location;lat;lon;timestamp;P1;durP1;ratioP1;P2;durP2;ratioP2
31638;SDS011;18248;51.522;7.020;2023-06-14T00:01:58;9.30;;;4.40;;
31638;SDS011;18248;51.522;7.020;2023-06-14T00:04:56;7.97;;;4.45;;
31638;SDS011;18248;51.522;7.020;2023-06-14T00:07:55;9.57;;;4.10;;
31638;SDS011;18248;51.522;7.020;2023-06-14T00:10:53;7.47;;;4.03;;
31638;SDS011;18248;51.522;7.020;2023-06-14T00:13:52;13.82;;;5.28;;
31638;SDS011;18248;51.522;7.020;2023-06-14T00:16:50;10.70;;;3.92;;
31638;SDS011;18248;51.522;7.020;2023-06-14T00:19:50;7.05;;;3.65;;
31638;SDS011;18248;51.522;7.020;2023-06-14T00:22:49;8.93;;;4.30;;
31638;SDS011;18248;51.522;7.020;2023-06-14T00:25:48;5.53;;;3.90;;
31638;SDS011;18248;51.522;7.020;2023-06-14T00:28:46;8.85;;;4.18;;
31638;SDS011;18248;51.522;7.020;2023-06-14T00:31:45;6.93;;;4.40;;
31638;SDS011;18248;51.522;7.020;2023-06-14T00:34:43;10.90;;;3.88;;
31638;SDS011;18248;51.522;7.020;2023-06-14T00:37:42;8.65;;;4.20;;
31638;SDS011;18248;51.522;7.020;2023-06-14T00:40:41;8.70;;;3.67;;
31638;SDS011;18248;51.522;7.020;2023-06-14T00:43:40;7.20;;;4.43;;
31638;SDS011;18248;51.522;7.020;2023-06-14T00:46:38;11.00;;;4.80;;
31638;SDS011;18248;51.522;7.020;2023-06-14T00:49:38;7.05;;;4.47;;
31638;SDS011;18248;51.522;7.020;2023-06-14T00:52:37;9.05;;;3.83;;
31638;SDS011;18248;51.522;7.020;2023-06-14T00:55:36;7.47;;;3.90;;
31638;SDS011;18248;51.522;7.020;2023-06-14T00:58:34;5.53;;;3.53;;
31638;SDS011;18248;51.522;7.020;2023-06-14T01:01:33;10.05;;;4.57;;
31638;SDS011;18248;51.522;7.020;2023-06-14T01:04:31;9.10;;;3.90;;
31638;SDS011;18248;51.522;7.020;2023-06-14T01:07:33;7.40;;;3.40;;
31638;SDS011;18248;51.522;7.020;2023-06-14T01:11:02;6.93;;;3.95;;
31638;SDS011;18248;51.522;7.020;2023-06-14T01:14:10;5.85;;;3.53;;
31638;SDS011;18248;51.522;7.020;2023-06-14T01:17:11;9.50;;;4.15;;
31638;SDS011;18248;51.522;7.020;2023-06-14T01:20:14;6.78;;;3.53;;
31638;SDS011;18248;51.522;7.020;2023-06-14T01:23:19;8.05;;;3.47;;
31638;SDS011;18248;51.522;7.020;2023-06-14T01:26:22;6.10;;;3.45;;
31638;SDS011;18248;51.522;7.020;2023-06-14T01:29:22;7.45;;;3.88;;
31638;SDS011;18248;51.522;7.020;2023-06-14T01:32:25;13.32;;;4.00;;
31638;SDS011;18248;51.522;7.020;2023-06-14T01:35:26;7.60;;;3.67;;
31638;SDS011;18248;51.522;7.020;2023-06-14T01:38:25;8.20;;;3.97;;
31638;SDS011;18248;51.522;7.020;2023-06-14T01:41:25;6.72;;;3.40;;
31638;SDS011;18248;51.522;7.020;2023-06-14T01:44:26;5.95;;;3.38;;
31638;SDS011;18248;51.522;7.020;2023-06-14T01:47:26;7.80;;;3.58;;
31638;SDS011;18248;51.522;7.020;2023-06-14T01:50:29;8.05;;;3.70;;
31638;SDS011;18248;51.522;7.020;2023-06-14T01:53:28;6.38;;;3.03;;
31638;SDS011;18248;51.522;7.020;2023-06-14T01:56:28;9.10;;;3.53;;
31638;SDS011;18248;51.522;7.020;2023-06-14T01:59:27;8.65;;;3.78;;
31638;SDS011;18248;51.522;7.020;2023-06-14T02:02:29;10.60;;;3.72;;
31638;SDS011;18248;51.522;7.020;2023-06-14T02:05:29;8.57;;;3.05;;
31638;SDS011;18248;51.522;7.020;2023-06-14T02:08:28;4.80;;;3.28;;
31638;SDS011;18248;51.522;7.020;2023-06-14T02:11:27;8.07;;;3.90;;
31638;SDS011;18248;51.522;7.020;2023-06-14T02:14:25;7.60;;;3.65;;
31638;SDS011;18248;51.522;7.020;2023-06-14T02:17:24;7.30;;;3.33;;
31638;SDS011;18248;51.522;7.020;2023-06-14T02:20:24;6.15;;;3.22;;
31638;SDS011;18248;51.522;7.020;2023-06-14T02:23:23;9.05;;;3.25;;
31638;SDS011;18248;51.522;7.020;2023-06-14T02:26:21;8.35;;;3.47;;
31638;SDS011;18248;51.522;7.020;2023-06-14T02:29:23;12.48;;;3.22;;
31638;SDS011;18248;51.522;7.020;2023-06-14T02:32:22;11.40;;;3.40;;
31638;SDS011;18248;51.522;7.020;2023-06-14T02:35:21;8.80;;;3.92;;
31638;SDS011;18248;51.522;7.020;2023-06-14T02:38:22;5.03;;;3.20;;
31638;SDS011;18248;51.522;7.020;2023-06-14T02:41:21;9.23;;;3.15;;
31638;SDS011;18248;51.522;7.020;2023-06-14T02:44:19;12.30;;;4.13;;
31638;SDS011;18248;51.522;7.020;2023-06-14T02:47:23;5.30;;;3.13;;
31638;SDS011;18248;51.522;7.020;2023-06-14T02:50:22;6.72;;;3.40;;
31638;SDS011;18248;51.522;7.020;2023-06-14T02:53:22;4.63;;;2.63;;
31638;SDS011;18248;51.522;7.020;2023-06-14T02:56:20;7.03;;;3.05;;
31638;SDS011;18248;51.522;7.020;2023-06-14T02:59:20;8.93;;;2.92;;
31638;SDS011;18248;51.522;7.020;2023-06-14T03:02:19;6.13;;;2.97;;
31638;SDS011;18248;51.522;7.020;2023-06-14T03:05:18;9.10;;;3.53;;
31638;SDS011;18248;51.522;7.020;2023-06-14T03:08:19;6.50;;;3.42;;
31638;SDS011;18248;51.522;7.020;2023-06-14T03:11:17;8.70;;;2.90;;
31638;SDS011;18248;51.522;7.020;2023-06-14T03:14:18;7.85;;;3.70;;
31638;SDS011;18248;51.522;7.020;2023-06-14T03:17:17;7.13;;;2.90;;
31638;SDS011;18248;51.522;7.020;2023-06-14T03:20:17;8.30;;;3.50;;
31638;SDS011;18248;51.522;7.020;2023-06-14T03:23:17;8.98;;;3.75;;
31638;SDS011;18248;51.522;7.020;2023-06-14T03:26:15;8.07;;;3.40;;
31638;SDS011;18248;51.522;7.020;2023-06-14T03:29:15;13.48;;;3.80;;
31638;SDS011;18248;51.522;7.020;2023-06-14T03:32:14;5.22;;;3.03;;
31638;SDS011;18248;51.522;7.020;2023-06-14T03:35:13;7.85;;;3.05;;
31638;SDS011;18248;51.522;7.020;2023-06-14T03:38:15;5.67;;;2.73;;
31638;SDS011;18248;51.522;7.020;2023-06-14T03:41:14;5.93;;;3.00;;
31638;SDS011;18248;51.522;7.020;2023-06-14T03:44:15;4.43;;;2.83;;
31638;SDS011;18248;51.522;7.020;2023-06-14T03:47:15;6.05;;;3.10;;
31638;SDS011;18248;51.522;7.020;2023-06-14T03:50:14;8.63;;;2.88;;
31638;SDS011;18248;51.522;7.020;2023-06-14T03:53:16;8.02;;;3.50;;
31638;SDS011;18248;51.522;7.020;2023-06-14T03:56:16;11.95;;;3.50;;
31638;SDS011;18248;51.522;7.020;2023-06-14T03:59:15;11.10;;;3.30;;
31638;SDS011;18248;51.522;7.020;2023-06-14T04:02:13;12.40;;;3.40;;
31638;SDS011;18248;51.522;7.020;2023-06-14T04:05:16;9.07;;;3.45;;
31638;SDS011;18248;51.522;7.020;2023-06-14T04:08:17;10.93;;;2.95;;
31638;SDS011;18248;51.522;7.020;2023-06-14T04:11:17;8.05;;;3.40;;
31638;SDS011;18248;51.522;7.020;2023-06-14T04:14:15;9.88;;;3.20;;
31638;SDS011;18248;51.522;7.020;2023-06-14T04:17:16;9.38;;;3.00;;
31638;SDS011;18248;51.522;7.020;2023-06-14T04:20:15;10.65;;;3.65;;
31638;SDS011;18248;51.522;7.020;2023-06-14T04:23:15;8.30;;;3.08;;
31638;SDS011;18248;51.522;7.020;2023-06-14T04:26:15;10.88;;;3.28;;
31638;SDS011;18248;51.522;7.020;2023-06-14T04:29:15;6.03;;;3.13;;
31638;SDS011;18248;51.522;7.020;2023-06-14T04:32:14;8.50;;;3.88;;
31638;SDS011;18248;51.522;7.020;2023-06-14T04:35:14;8.00;;;3.10;;
31638;SDS011;18248;51.522;7.020;2023-06-14T04:38:14;5.32;;;3.22;;
31638;SDS011;18248;51.522;7.020;2023-06-14T04:41:14;12.15;;;4.03;;
31638;SDS011;18248;51.522;7.020;2023-06-14T04:44:15;7.50;;;3.08;;
31638;SDS011;18248;51.522;7.020;2023-06-14T04:47:15;5.78;;;3.00;;
31638;SDS011;18248;51.522;7.020;2023-06-14T04:50:14;20.50;;;4.05;;
31638;SDS011;18248;51.522;7.020;2023-06-14T04:53:16;9.40;;;3.72;;
31638;SDS011;18248;51.522;7.020;2023-06-14T04:56:15;8.52;;;3.13;;
31638;SDS011;18248;51.522;7.020;2023-06-14T04:59:14;14.27;;;3.72;;
31638;SDS011;18248;51.522;7.020;2023-06-14T05:02:15;10.98;;;3.65;;
31638;SDS011;18248;51.522;7.020;2023-06-14T05:05:13;8.93;;;2.97;;
31638;SDS011;18248;51.522;7.020;2023-06-14T05:08:13;10.50;;;2.90;;
31638;SDS011;18248;51.522;7.020;2023-06-14T05:11:12;12.52;;;2.90;;
31638;SDS011;18248;51.522;7.020;2023-06-14T05:14:11;6.68;;;2.78;;
31638;SDS011;18248;51.522;7.020;2023-06-14T05:17:10;12.30;;;2.60;;
31638;SDS011;18248;51.522;7.020;2023-06-14T05:20:08;6.70;;;2.58;;
31638;SDS011;18248;51.522;7.020;2023-06-14T05:23:11;11.82;;;2.75;;
31638;SDS011;18248;51.522;7.020;2023-06-14T05:26:12;7.47;;;3.42;;
31638;SDS011;18248;51.522;7.020;2023-06-14T05:29:11;10.43;;;2.80;;
31638;SDS011;18248;51.522;7.020;2023-06-14T05:32:10;8.23;;;2.50;;
31638;SDS011;18248;51.522;7.020;2023-06-14T05:35:09;10.90;;;3.97;;
31638;SDS011;18248;51.522;7.020;2023-06-14T05:38:08;13.30;;;3.00;;
31638;SDS011;18248;51.522;7.020;2023-06-14T05:41:07;6.07;;;2.90;;
31638;SDS011;18248;51.522;7.020;2023-06-14T05:44:05;8.43;;;2.65;;
31638;SDS011;18248;51.522;7.020;2023-06-14T05:47:05;9.82;;;2.70;;
31638;SDS011;18248;51.522;7.020;2023-06-14T05:50:04;12.57;;;2.47;;
31638;SDS011;18248;51.522;7.020;2023-06-14T05:53:03;8.15;;;2.80;;
31638;SDS011;18248;51.522;7.020;2023-06-14T05:56:01;5.53;;;2.22;;
31638;SDS011;18248;51.522;7.020;2023-06-14T05:59:00;9.35;;;2.70;;
31638;SDS011;18248;51.522;7.020;2023-06-14T06:01:59;11.75;;;2.28;;
31638;SDS011;18248;51.522;7.020;2023-06-14T06:04:57;10.98;;;2.80;;
31638;SDS011;18248;51.522;7.020;2023-06-14T06:07:56;10.50;;;2.42;;
31638;SDS011;18248;51.522;7.020;2023-06-14T06:10:54;5.28;;;2.17;;
31638;SDS011;18248;51.522;7.020;2023-06-14T06:13:53;7.97;;;2.50;;
31638;SDS011;18248;51.522;7.020;2023-06-14T06:16:54;6.70;;;2.28;;
31638;SDS011;18248;51.522;7.020;2023-06-14T06:19:53;8.57;;;2.60;;
31638;SDS011;18248;51.522;7.020;2023-06-14T06:22:52;4.80;;;2.03;;
31638;SDS011;18248;51.522;7.020;2023-06-14T06:25:50;7.43;;;1.90;;
31638;SDS011;18248;51.522;7.020;2023-06-14T06:28:49;5.70;;;2.20;;
31638;SDS011;18248;51.522;7.020;2023-06-14T06:31:48;7.32;;;1.90;;
31638;SDS011;18248;51.522;7.020;2023-06-14T06:34:46;6.15;;;1.90;;
31638;SDS011;18248;51.522;7.020;2023-06-14T06:37:46;5.30;;;1.70;;
31638;SDS011;18248;51.522;7.020;2023-06-14T06:40:45;8.13;;;1.98;;
31638;SDS011;18248;51.522;7.020;2023-06-14T06:43:44;7.50;;;1.50;;
31638;SDS011;18248;51.522;7.020;2023-06-14T06:46:43;6.63;;;1.48;;
31638;SDS011;18248;51.522;7.020;2023-06-14T06:49:41;8.57;;;1.60;;
31638;SDS011;18248;51.522;7.020;2023-06-14T06:52:40;9.02;;;1.60;;
31638;SDS011;18248;51.522;7.020;2023-06-14T06:55:38;11.05;;;1.50;;
31638;SDS011;18248;51.522;7.020;2023-06-14T06:58:37;4.47;;;1.67;;
31638;SDS011;18248;51.522;7.020;2023-06-14T07:01:36;4.75;;;1.50;;
31638;SDS011;18248;51.522;7.020;2023-06-14T07:04:34;7.85;;;1.58;;
31638;SDS011;18248;51.522;7.020;2023-06-14T07:07:34;3.05;;;1.27;;
31638;SDS011;18248;51.522;7.020;2023-06-14T07:10:33;11.02;;;2.05;;
31638;SDS011;18248;51.522;7.020;2023-06-14T07:13:34;6.82;;;1.70;;
31638;SDS011;18248;51.522;7.020;2023-06-14T07:16:33;3.58;;;1.67;;
31638;SDS011;18248;51.522;7.020;2023-06-14T07:19:32;11.85;;;1.70;;
31638;SDS011;18248;51.522;7.020;2023-06-14T07:22:32;21.85;;;2.40;;
31638;SDS011;18248;51.522;7.020;2023-06-14T07:25:31;11.77;;;1.77;;
31638;SDS011;18248;51.522;7.020;2023-06-14T07:28:29;12.85;;;1.83;;
31638;SDS011;18248;51.522;7.020;2023-06-14T07:31:28;4.57;;;1.52;;
31638;SDS011;18248;51.522;7.020;2023-06-14T07:34:26;8.57;;;1.75;;
31638;SDS011;18248;51.522;7.020;2023-06-14T07:37:26;9.63;;;1.58;;
31638;SDS011;18248;51.522;7.020;2023-06-14T07:40:25;3.05;;;1.30;;
31638;SDS011;18248;51.522;7.020;2023-06-14T07:43:23;6.38;;;1.58;;
31638;SDS011;18248;51.522;7.020;2023-06-14T07:46:22;4.32;;;1.40;;
31638;SDS011;18248;51.522;7.020;2023-06-14T07:49:20;7.25;;;1.27;;
31638;SDS011;18248;51.522;7.020;2023-06-14T07:52:19;7.45;;;1.58;;
31638;SDS011;18248;51.522;7.020;2023-06-14T07:55:18;4.20;;;1.27;;
31638;SDS011;18248;51.522;7.020;2023-06-14T07:58:17;9.20;;;1.77;;
31638;SDS011;18248;51.522;7.020;2023-06-14T08:01:15;10.60;;;1.83;;
31638;SDS011;18248;51.522;7.020;2023-06-14T08:04:14;9.30;;;1.70;;
31638;SDS011;18248;51.522;7.020;2023-06-14T08:07:13;3.00;;;1.40;;
31638;SDS011;18248;51.522;7.020;2023-06-14T08:10:12;9.93;;;1.83;;
31638;SDS011;18248;51.522;7.020;2023-06-14T08:13:11;6.95;;;1.70;;
31638;SDS011;18248;51.522;7.020;2023-06-14T08:16:11;7.93;;;1.50;;
31638;SDS011;18248;51.522;7.020;2023-06-14T08:19:10;7.95;;;1.95;;
31638;SDS011;18248;51.522;7.020;2023-06-14T08:22:08;9.77;;;1.75;;
31638;SDS011;18248;51.522;7.020;2023-06-14T08:25:09;7.15;;;1.33;;
31638;SDS011;18248;51.522;7.020;2023-06-14T08:28:10;4.15;;;1.50;;
31638;SDS011;18248;51.522;7.020;2023-06-14T08:31:08;10.25;;;1.88;;
31638;SDS011;18248;51.522;7.020;2023-06-14T08:34:07;9.82;;;1.80;;
31638;SDS011;18248;51.522;7.020;2023-06-14T08:37:06;8.88;;;1.60;;
31638;SDS011;18248;51.522;7.020;2023-06-14T08:40:06;15.02;;;1.83;;
31638;SDS011;18248;51.522;7.020;2023-06-14T08:43:20;5.38;;;1.45;;
31638;SDS011;18248;51.522;7.020;2023-06-14T08:46:19;4.68;;;1.40;;
31638;SDS011;18248;51.522;7.020;2023-06-14T08:49:17;8.82;;;1.60;;
31638;SDS011;18248;51.522;7.020;2023-06-14T08:52:17;4.13;;;1.33;;
31638;SDS011;18248;51.522;7.020;2023-06-14T08:55:18;6.93;;;1.60;;
31638;SDS011;18248;51.522;7.020;2023-06-14T08:58:18;5.88;;;1.52;;
31638;SDS011;18248;51.522;7.020;2023-06-14T09:01:17;4.13;;;1.40;;
31638;SDS011;18248;51.522;7.020;2023-06-14T09:04:17;14.10;;;1.50;;
31638;SDS011;18248;51.522;7.020;2023-06-14T09:07:21;2.17;;;1.20;;
31638;SDS011;18248;51.522;7.020;2023-06-14T09:10:20;5.90;;;1.35;;
31638;SDS011;18248;51.522;7.020;2023-06-14T09:13:19;6.32;;;1.17;;
31638;SDS011;18248;51.522;7.020;2023-06-14T09:16:17;4.00;;;1.38;;
31638;SDS011;18248;51.522;7.020;2023-06-14T09:19:25;9.10;;;1.27;;
31638;SDS011;18248;51.522;7.020;2023-06-14T09:22:24;2.25;;;1.20;;
31638;SDS011;18248;51.522;7.020;2023-06-14T09:25:22;8.60;;;1.40;;
31638;SDS011;18248;51.522;7.020;2023-06-14T09:28:29;8.45;;;1.23;;
31638;SDS011;18248;51.522;7.020;2023-06-14T09:31:29;3.70;;;1.13;;
31638;SDS011;18248;51.522;7.020;2023-06-14T09:34:29;3.25;;;1.00;;
31638;SDS011;18248;51.522;7.020;2023-06-14T09:37:28;5.68;;;0.90;;
31638;SDS011;18248;51.522;7.020;2023-06-14T09:40:28;4.07;;;1.20;;
31638;SDS011;18248;51.522;7.020;2023-06-14T09:46:32;6.75;;;1.50;;
31638;SDS011;18248;51.522;7.020;2023-06-14T09:49:31;8.60;;;1.00;;
31638;SDS011;18248;51.522;7.020;2023-06-14T09:52:30;3.95;;;1.20;;
31638;SDS011;18248;51.522;7.020;2023-06-14T09:55:30;4.13;;;1.30;;
31638;SDS011;18248;51.522;7.020;2023-06-14T09:58:32;9.82;;;1.52;;
31638;SDS011;18248;51.522;7.020;2023-06-14T10:01:33;8.10;;;1.30;;
31638;SDS011;18248;51.522;7.020;2023-06-14T10:04:33;2.95;;;1.02;;
31638;SDS011;18248;51.522;7.020;2023-06-14T10:07:34;7.50;;;1.02;;
31638;SDS011;18248;51.522;7.020;2023-06-14T10:10:38;6.88;;;1.20;;
31638;SDS011;18248;51.522;7.020;2023-06-14T10:13:38;4.78;;;0.70;;
31638;SDS011;18248;51.522;7.020;2023-06-14T10:26:16;4.55;;;0.90;;
31638;SDS011;18248;51.522;7.020;2023-06-14T10:29:17;3.42;;;0.70;;
31638;SDS011;18248;51.522;7.020;2023-06-14T10:32:16;4.03;;;1.23;;
31638;SDS011;18248;51.522;7.020;2023-06-14T10:35:19;3.03;;;1.20;;
31638;SDS011;18248;51.522;7.020;2023-06-14T10:38:18;3.95;;;0.85;;
31638;SDS011;18248;51.522;7.020;2023-06-14T10:41:29;2.33;;;1.00;;
31638;SDS011;18248;51.522;7.020;2023-06-14T10:47:37;6.93;;;1.10;;
31638;SDS011;18248;51.522;7.020;2023-06-14T10:50:37;6.43;;;0.80;;
31638;SDS011;18248;51.522;7.020;2023-06-14T10:53:42;6.45;;;0.88;;
31638;SDS011;18248;51.522;7.020;2023-06-14T10:59:48;7.45;;;0.77;;
31638;SDS011;18248;51.522;7.020;2023-06-14T11:06:34;3.30;;;0.90;;
31638;SDS011;18248;51.522;7.020;2023-06-14T11:10:10;6.03;;;0.70;;
31638;SDS011;18248;51.522;7.020;2023-06-14T11:13:08;5.07;;;1.08;;
31638;SDS011;18248;51.522;7.020;2023-06-14T11:16:14;6.97;;;1.05;;
31638;SDS011;18248;51.522;7.020;2023-06-14T11:19:14;10.43;;;1.00;;
31638;SDS011;18248;51.522;7.020;2023-06-14T11:22:15;7.85;;;1.08;;
31638;SDS011;18248;51.522;7.020;2023-06-14T11:25:14;3.72;;;0.77;;
31638;SDS011;18248;51.522;7.020;2023-06-14T11:28:13;6.32;;;0.90;;
31638;SDS011;18248;51.522;7.020;2023-06-14T11:31:11;2.33;;;0.80;;
31638;SDS011;18248;51.522;7.020;2023-06-14T11:34:10;4.85;;;1.05;;
31638;SDS011;18248;51.522;7.020;2023-06-14T11:37:10;1.90;;;0.90;;
31638;SDS011;18248;51.522;7.020;2023-06-14T11:40:10;1.58;;;1.00;;
31638;SDS011;18248;51.522;7.020;2023-06-14T11:43:11;4.72;;;1.48;;
31638;SDS011;18248;51.522;7.020;2023-06-14T11:46:14;5.63;;;0.80;;
31638;SDS011;18248;51.522;7.020;2023-06-14T11:49:20;13.10;;;1.45;;
31638;SDS011;18248;51.522;7.020;2023-06-14T11:52:18;5.85;;;1.13;;
31638;SDS011;18248;51.522;7.020;2023-06-14T11:55:17;4.80;;;1.30;;
31638;SDS011;18248;51.522;7.020;2023-06-14T11:58:15;3.22;;;1.00;;
31638;SDS011;18248;51.522;7.020;2023-06-14T12:01:16;7.55;;;1.30;;
31638;SDS011;18248;51.522;7.020;2023-06-14T12:04:23;8.85;;;1.42;;
31638;SDS011;18248;51.522;7.020;2023-06-14T12:07:24;4.32;;;1.27;;
31638;SDS011;18248;51.522;7.020;2023-06-14T12:10:24;5.05;;;1.27;;
31638;SDS011;18248;51.522;7.020;2023-06-14T12:13:24;10.18;;;1.35;;
31638;SDS011;18248;51.522;7.020;2023-06-14T12:16:29;7.82;;;1.40;;
31638;SDS011;18248;51.522;7.020;2023-06-14T12:19:32;9.82;;;1.20;;
31638;SDS011;18248;51.522;7.020;2023-06-14T12:22:32;6.50;;;1.13;;
31638;SDS011;18248;51.522;7.020;2023-06-14T12:28:31;10.60;;;1.90;;
31638;SDS011;18248;51.522;7.020;2023-06-14T12:31:30;3.28;;;1.23;;
31638;SDS011;18248;51.522;7.020;2023-06-14T12:34:29;4.63;;;1.40;;
31638;SDS011;18248;51.522;7.020;2023-06-14T12:37:29;8.95;;;1.65;;
31638;SDS011;18248;51.522;7.020;2023-06-14T12:40:28;5.78;;;1.55;;
31638;SDS011;18248;51.522;7.020;2023-06-14T12:43:27;3.42;;;1.23;;
31638;SDS011;18248;51.522;7.020;2023-06-14T12:46:26;6.32;;;1.45;;
31638;SDS011;18248;51.522;7.020;2023-06-14T12:49:24;4.63;;;1.35;;
31638;SDS011;18248;51.522;7.020;2023-06-14T12:52:23;3.53;;;1.30;;
31638;SDS011;18248;51.522;7.020;2023-06-14T12:55:21;4.28;;;1.65;;
31638;SDS011;18248;51.522;7.020;2023-06-14T12:58:20;4.60;;;1.70;;
31638;SDS011;18248;51.522;7.020;2023-06-14T13:01:19;4.88;;;1.48;;
31638;SDS011;18248;51.522;7.020;2023-06-14T13:04:17;9.07;;;1.60;;
31638;SDS011;18248;51.522;7.020;2023-06-14T13:07:16;2.33;;;1.40;;
31638;SDS011;18248;51.522;7.020;2023-06-14T13:10:15;5.90;;;1.77;;
31638;SDS011;18248;51.522;7.020;2023-06-14T13:13:14;2.65;;;1.30;;
31638;SDS011;18248;51.522;7.020;2023-06-14T13:16:13;5.78;;;1.60;;
31638;SDS011;18248;51.522;7.020;2023-06-14T13:19:12;4.72;;;1.58;;
31638;SDS011;18248;51.522;7.020;2023-06-14T13:22:11;4.80;;;1.30;;
31638;SDS011;18248;51.522;7.020;2023-06-14T13:25:11;3.30;;;1.50;;
31638;SDS011;18248;51.522;7.020;2023-06-14T13:28:09;9.95;;;2.00;;
31638;SDS011;18248;51.522;7.020;2023-06-14T13:31:11;8.18;;;2.10;;
31638;SDS011;18248;51.522;7.020;2023-06-14T13:34:09;4.25;;;1.50;;
31638;SDS011;18248;51.522;7.020;2023-06-14T13:37:09;5.13;;;1.50;;
31638;SDS011;18248;51.522;7.020;2023-06-14T13:40:07;3.13;;;1.25;;
31638;SDS011;18248;51.522;7.020;2023-06-14T13:43:06;4.07;;;1.05;;
31638;SDS011;18248;51.522;7.020;2023-06-14T13:46:05;5.68;;;1.42;;
31638;SDS011;18248;51.522;7.020;2023-06-14T13:49:03;6.45;;;1.73;;
31638;SDS011;18248;51.522;7.020;2023-06-14T13:52:03;3.97;;;1.15;;
31638;SDS011;18248;51.522;7.020;2023-06-14T13:55:02;5.65;;;1.90;;
31638;SDS011;18248;51.522;7.020;2023-06-14T13:58:01;4.32;;;1.40;;
31638;SDS011;18248;51.522;7.020;2023-06-14T14:00:59;5.20;;;1.60;;
31638;SDS011;18248;51.522;7.020;2023-06-14T14:03:59;5.95;;;1.40;;
31638;SDS011;18248;51.522;7.020;2023-06-14T14:06:58;5.65;;;1.80;;
31638;SDS011;18248;51.522;7.020;2023-06-14T14:09:57;2.45;;;1.60;;
31638;SDS011;18248;51.522;7.020;2023-06-14T14:12:55;3.85;;;1.73;;
31638;SDS011;18248;51.522;7.020;2023-06-14T14:15:54;7.03;;;2.08;;
31638;SDS011;18248;51.522;7.020;2023-06-14T14:18:53;5.82;;;1.23;;
31638;SDS011;18248;51.522;7.020;2023-06-14T14:21:55;7.88;;;1.60;;
31638;SDS011;18248;51.522;7.020;2023-06-14T14:24:54;3.85;;;1.70;;
31638;SDS011;18248;51.522;7.020;2023-06-14T14:27:53;4.10;;;1.52;;
31638;SDS011;18248;51.522;7.020;2023-06-14T14:30:52;6.15;;;1.55;;
31638;SDS011;18248;51.522;7.020;2023-06-14T14:33:51;3.92;;;1.48;;
31638;SDS011;18248;51.522;7.020;2023-06-14T14:36:50;2.70;;;1.67;;
31638;SDS011;18248;51.522;7.020;2023-06-14T14:39:49;2.42;;;1.40;;
31638;SDS011;18248;51.522;7.020;2023-06-14T14:42:47;2.47;;;1.70;;
31638;SDS011;18248;51.522;7.020;2023-06-14T14:45:46;2.13;;;1.52;;
31638;SDS011;18248;51.522;7.020;2023-06-14T14:48:44;4.07;;;1.80;;
31638;SDS011;18248;51.522;7.020;2023-06-14T14:51:43;3.95;;;1.85;;
31638;SDS011;18248;51.522;7.020;2023-06-14T14:54:41;6.28;;;1.50;;
31638;SDS011;18248;51.522;7.020;2023-06-14T14:57:40;1.80;;;1.25;;
31638;SDS011;18248;51.522;7.020;2023-06-14T15:00:39;8.38;;;1.55;;
31638;SDS011;18248;51.522;7.020;2023-06-14T15:03:37;2.05;;;1.50;;
31638;SDS011;18248;51.522;7.020;2023-06-14T15:06:36;3.50;;;1.48;;
31638;SDS011;18248;51.522;7.020;2023-06-14T15:09:36;3.53;;;1.75;;
31638;SDS011;18248;51.522;7.020;2023-06-14T15:12:34;3.75;;;1.40;;
31638;SDS011;18248;51.522;7.020;2023-06-14T15:15:34;6.25;;;1.60;;
31638;SDS011;18248;51.522;7.020;2023-06-14T15:18:33;2.42;;;1.58;;
31638;SDS011;18248;51.522;7.020;2023-06-14T15:21:32;3.88;;;1.50;;
31638;SDS011;18248;51.522;7.020;2023-06-14T15:24:30;5.57;;;1.58;;
31638;SDS011;18248;51.522;7.020;2023-06-14T15:27:30;4.88;;;2.72;;
31638;SDS011;18248;51.522;7.020;2023-06-14T15:30:29;4.72;;;1.95;;
31638;SDS011;18248;51.522;7.020;2023-06-14T15:33:27;5.68;;;2.15;;
31638;SDS011;18248;51.522;7.020;2023-06-14T15:36:26;6.75;;;1.70;;
31638;SDS011;18248;51.522;7.020;2023-06-14T15:39:26;5.30;;;1.70;;
31638;SDS011;18248;51.522;7.020;2023-06-14T15:42:25;5.03;;;1.85;;
31638;SDS011;18248;51.522;7.020;2023-06-14T15:45:24;3.05;;;2.08;;
31638;SDS011;18248;51.522;7.020;2023-06-14T15:48:22;2.95;;;2.35;;
31638;SDS011;18248;51.522;7.020;2023-06-14T15:51:21;5.07;;;2.00;;
31638;SDS011;18248;51.522;7.020;2023-06-14T15:54:19;10.38;;;1.55;;
31638;SDS011;18248;51.522;7.020;2023-06-14T15:57:18;2.60;;;1.65;;
31638;SDS011;18248;51.522;7.020;2023-06-14T16:00:16;4.65;;;1.52;;
31638;SDS011;18248;51.522;7.020;2023-06-14T16:03:15;7.85;;;1.65;;
31638;SDS011;18248;51.522;7.020;2023-06-14T16:06:14;9.52;;;1.90;;
31638;SDS011;18248;51.522;7.020;2023-06-14T16:09:12;2.63;;;1.50;;
31638;SDS011;18248;51.522;7.020;2023-06-14T16:12:11;5.25;;;1.50;;
31638;SDS011;18248;51.522;7.020;2023-06-14T16:15:10;4.75;;;1.60;;
31638;SDS011;18248;51.522;7.020;2023-06-14T16:18:09;5.35;;;1.80;;
31638;SDS011;18248;51.522;7.020;2023-06-14T16:21:07;6.10;;;1.88;;
31638;SDS011;18248;51.522;7.020;2023-06-14T16:24:08;9.40;;;1.52;;
31638;SDS011;18248;51.522;7.020;2023-06-14T16:27:06;2.38;;;1.60;;
31638;SDS011;18248;51.522;7.020;2023-06-14T16:30:07;5.10;;;1.55;;
31638;SDS011;18248;51.522;7.020;2023-06-14T16:33:16;2.85;;;1.50;;
31638;SDS011;18248;51.522;7.020;2023-06-14T16:36:17;4.60;;;1.58;;
31638;SDS011;18248;51.522;7.020;2023-06-14T16:39:16;4.72;;;1.70;;
31638;SDS011;18248;51.522;7.020;2023-06-14T16:42:15;6.72;;;1.60;;
31638;SDS011;18248;51.522;7.020;2023-06-14T16:45:13;3.25;;;1.85;;
31638;SDS011;18248;51.522;7.020;2023-06-14T16:48:13;9.25;;;2.33;;
31638;SDS011;18248;51.522;7.020;2023-06-14T16:51:13;7.35;;;1.90;;
31638;SDS011;18248;51.522;7.020;2023-06-14T16:54:12;9.60;;;1.77;;
31638;SDS011;18248;51.522;7.020;2023-06-14T16:57:10;3.40;;;1.50;;
31638;SDS011;18248;51.522;7.020;2023-06-14T17:00:10;3.03;;;1.65;;
31638;SDS011;18248;51.522;7.020;2023-06-14T17:03:09;3.90;;;1.77;;
31638;SDS011;18248;51.522;7.020;2023-06-14T17:06:08;10.43;;;1.90;;
31638;SDS011;18248;51.522;7.020;2023-06-14T17:09:16;3.47;;;1.67;;
31638;SDS011;18248;51.522;7.020;2023-06-14T17:12:14;2.70;;;1.70;;
31638;SDS011;18248;51.522;7.020;2023-06-14T17:15:13;7.10;;;2.08;;
31638;SDS011;18248;51.522;7.020;2023-06-14T17:18:15;4.63;;;2.00;;
31638;SDS011;18248;51.522;7.020;2023-06-14T17:21:16;2.80;;;1.85;;
31638;SDS011;18248;51.522;7.020;2023-06-14T17:24:15;7.93;;;2.03;;
31638;SDS011;18248;51.522;7.020;2023-06-14T17:27:14;4.07;;;1.58;;
31638;SDS011;18248;51.522;7.020;2023-06-14T17:30:16;5.03;;;1.52;;
31638;SDS011;18248;51.522;7.020;2023-06-14T17:33:15;4.90;;;1.70;;
31638;SDS011;18248;51.522;7.020;2023-06-14T17:36:17;2.70;;;1.75;;
31638;SDS011;18248;51.522;7.020;2023-06-14T17:39:36;3.28;;;1.73;;
31638;SDS011;18248;51.522;7.020;2023-06-14T17:42:37;2.47;;;1.60;;
31638;SDS011;18248;51.522;7.020;2023-06-14T17:45:40;4.03;;;1.75;;
31638;SDS011;18248;51.522;7.020;2023-06-14T17:48:38;4.57;;;1.58;;
31638;SDS011;18248;51.522;7.020;2023-06-14T17:51:37;2.47;;;1.25;;
31638;SDS011;18248;51.522;7.020;2023-06-14T17:54:35;3.17;;;1.45;;
31638;SDS011;18248;51.522;7.020;2023-06-14T17:57:34;2.83;;;1.67;;
31638;SDS011;18248;51.522;7.020;2023-06-14T18:00:32;2.35;;;1.50;;
31638;SDS011;18248;51.522;7.020;2023-06-14T18:03:31;2.70;;;1.40;;
31638;SDS011;18248;51.522;7.020;2023-06-14T18:06:30;2.35;;;1.30;;
31638;SDS011;18248;51.522;7.020;2023-06-14T18:09:28;5.72;;;1.48;;
31638;SDS011;18248;51.522;7.020;2023-06-14T18:12:27;5.50;;;1.75;;
31638;SDS011;18248;51.522;7.020;2023-06-14T18:15:25;1.80;;;1.50;;
31638;SDS011;18248;51.522;7.020;2023-06-14T18:18:24;3.72;;;1.45;;
31638;SDS011;18248;51.522;7.020;2023-06-14T18:21:22;2.38;;;1.58;;
31638;SDS011;18248;51.522;7.020;2023-06-14T18:24:21;6.80;;;1.67;;
31638;SDS011;18248;51.522;7.020;2023-06-14T18:27:20;2.80;;;1.50;;